Time;durP1;ratioP1;P1;durP2;ratioP2;P2;SDS_P1;SDS_P2;PMS_P1;PMS_P2;Temp;Humidity;BMP_temperature;BMP_pressure;BME280_temperature;BME280_humidity;BME280_pressure;Samples;Min_cycle;Max_cycle;Signal;HPM_P1;HPM_P2
2022/12/30 00:00:48;;;;;;;;;;;;;;;27.32;29.99;95890.09;5001060;28;1707;-69
2022/12/30 00:03:13;;;;;;;;;;;;;;;27.32;30.11;95891.94;5002519;28;1755;-69
2022/12/30 00:05:38;;;;;;;;;;;;;;;27.31;29.96;95890.31;5021040;28;1778;-69
2022/12/30 00:08:04;;;;;;;;;;;;;;;27.29;29.95;95885.13;4997931;28;1371;-70
2022/12/30 00:10:29;;;;;;;;;;;;;;;27.27;30.06;95886.44;4997094;28;1799;-68
2022/12/30 00:34:56;;;;;;;;;;;;;;;27.18;30.40;95906.63;4991665;28;1970;-68
2022/12/30 00:37:21;;;;;;;;;;;;;;;27.18;30.34;95903.94;5005336;28;1834;-68
2022/12/30 00:39:47;;;;;;;;;;;;;;;27.20;30.58;95912.63;4983974;28;1781;-68
2022/12/30 00:44:56;;;;;;;;;;;;;;;27.14;30.70;95912.44;5003725;28;1390;-70
2022/12/30 00:47:21;;;;;;;;;;;;;;;27.18;30.42;95910.16;5006219;28;1623;-70
2022/12/30 00:57:58;;;;;;;;;;;;;;;27.19;30.68;95910.97;4989956;28;1575;-68
2022/12/30 01:00:23;;;;;;;;;;;;;;;27.20;30.95;95909.91;4993813;28;1514;-69
2022/12/30 01:02:49;;;;;;;;;;;;;;;27.19;30.94;95906.41;5012170;28;1689;-69
2022/12/30 01:05:14;;;;;;;;;;;;;;;27.21;30.90;95908.88;5003722;28;1537;-69
2022/12/30 01:07:39;;;;;;;;;;;;;;;27.22;31.01;95911.34;4990085;28;1554;-69
2022/12/30 01:10:05;;;;;;;;;;;;;;;27.19;30.86;95908.28;4995791;28;1456;-70
2022/12/30 01:12:30;;;;;;;;;;;;;;;27.21;30.98;95904.31;4992369;28;1564;-70
2022/12/30 01:14:55;;;;;;;;;;;;;;;27.23;31.13;95910.28;4987113;28;1915;-70
2022/12/30 01:17:26;;;;;;;;;;;;;;;27.23;31.15;95906.78;5032518;28;1705;-70
2022/12/30 01:19:52;;;;;;;;;;;;;;;27.22;31.35;95905.13;4993325;28;1535;-70
2022/12/30 01:22:17;;;;;;;;;;;;;;;27.24;31.24;95914.66;4993384;28;1721;-70
2022/12/30 01:24:43;;;;;;;;;;;;;;;27.24;31.12;95909.25;4996783;28;1732;-70
2022/12/30 01:27:08;;;;;;;;;;;;;;;27.25;31.48;95908.19;5022184;28;1674;-69
2022/12/30 01:29:38;;;;;;;;;;;;;;;27.24;31.42;95901.19;5003682;28;1723;-68
2022/12/30 01:32:04;;;;;;;;;;;;;;;27.23;31.65;95896.81;5015558;28;1570;-68
2022/12/30 01:34:30;;;;;;;;;;;;;;;27.24;31.54;95893.09;4989130;28;1953;-69
2022/12/30 01:36:55;;;;;;;;;;;;;;;27.25;31.41;95893.91;4996283;28;1813;-71
2022/12/30 01:39:21;;;;;;;;;;;;;;;27.26;31.57;95890.16;4996345;28;1663;-71
2022/12/30 01:41:46;;;;;;;;;;;;;;;27.28;31.45;95886.19;5002963;28;1482;-71
2022/12/30 01:44:30;;;;;;;;;;;;;;;27.29;31.49;95871.66;4997841;28;1449;-71
2022/12/30 01:46:55;;;;;;;;;;;;;;;27.28;31.44;95871.91;5005968;28;1700;-70
2022/12/30 01:49:20;;;;;;;;;;;;;;;27.31;31.68;95876.84;4998149;28;1664;-69
2022/12/30 01:51:46;;;;;;;;;;;;;;;27.30;31.91;95883.28;5010510;28;1790;-70
2022/12/30 01:54:11;;;;;;;;;;;;;;;27.30;31.69;95883.28;5006987;28;1910;-71
2022/12/30 01:56:37;;;;;;;;;;;;;;;27.27;31.71;95879.16;5024815;28;1672;-69
2022/12/30 01:59:05;;;;;;;;;;;;;;;27.28;32.00;95888.06;4999383;28;1579;-69
2022/12/30 02:01:33;;;;;;;;;;;;;;;27.23;32.22;95887.91;5007671;28;1559;-70
2022/12/30 02:04:02;;;;;;;;;;;;;;;27.29;31.88;95881.63;4998946;28;1620;-69
2022/12/30 02:06:33;;;;;;;;;;;;;;;27.31;31.79;95880.34;5007375;28;1579;-69
2022/12/30 02:08:59;;;;;;;;;;;;;;;27.31;31.83;95874.94;5000553;28;1617;-69
2022/12/30 02:11:24;;;;;;;;;;;;;;;27.32;31.86;95873.94;4992279;28;1505;-69
2022/12/30 02:13:50;;;;;;;;;;;;;;;27.33;31.83;95874.75;5008842;28;1906;-69
2022/12/30 02:16:34;;;;;;;;;;;;;;;27.34;31.94;95884.47;5002166;28;1849;-69
2022/12/30 02:19:02;;;;;;;;;;;;;;;27.32;31.79;95881.16;5003569;28;1632;-69
2022/12/30 02:21:46;;;;;;;;;;;;;;;27.32;31.98;95879.31;4986618;28;1578;-70
2022/12/30 02:24:29;;;;;;;;;;;;;;;27.32;32.22;95873.94;5010692;28;1781;-69
2022/12/30 02:27:04;;;;;;;;;;;;;;;27.32;31.90;95873.06;5007429;28;1740;-69
2022/12/30 02:29:41;;;;;;;;;;;;;;;27.31;31.83;95883.03;5027817;28;1687;-69
2022/12/30 02:32:25;;;;;;;;;;;;;;;27.29;31.92;95873.53;5023651;28;1669;-69
2022/12/30 02:35:11;;;;;;;;;;;;;;;27.30;32.12;95883.28;5003843;28;1910;-69
2022/12/30 02:37:41;;;;;;;;;;;;;;;27.29;32.04;95881.63;4997139;28;1671;-69
2022/12/30 02:40:14;;;;;;;;;;;;;;;27.30;32.09;95877.88;5018485;28;1699;-69
2022/12/30 02:45:30;;;;;;;;;;;;;;;27.29;32.03;95879.75;4988777;28;1459;-70
2022/12/30 02:48:00;;;;;;;;;;;;;;;27.30;31.91;95876.00;5005751;28;1437;-70
2022/12/30 02:53:12;;;;;;;;;;;;;;;27.29;32.26;95874.34;5003797;28;1730;-70
2022/12/30 02:55:37;;;;;;;;;;;;;;;27.31;32.17;95866.88;4999798;28;1914;-70
2022/12/30 02:58:03;;;;;;;;;;;;;;;27.31;32.07;95869.56;5023970;28;1603;-70
2022/12/30 03:06:23;;;;;;;;;;;;;;;27.32;32.28;95862.28;5007462;28;1648;-69
2022/12/30 03:08:48;;;;;;;;;;;;;;;27.31;32.45;95871.44;4990823;28;1578;-68
2022/12/30 03:11:18;;;;;;;;;;;;;;;27.35;32.46;95865.38;5002279;28;1479;-70
2022/12/30 03:13:46;;;;;;;;;;;;;;;27.41;32.33;95871.72;5001702;28;1898;-70
2022/12/30 03:16:11;;;;;;;;;;;;;;;27.42;32.31;95873.38;5026003;28;1728;-70
2022/12/30 03:18:37;;;;;;;;;;;;;;;27.43;32.43;95868.78;4991267;28;1786;-70
2022/12/30 03:21:04;;;;;;;;;;;;;;;27.43;32.12;95874.19;4998202;28;1438;-71
2022/12/30 03:28:59;;;;;;;;;;;;;;;27.48;32.35;95871.63;4993479;28;1420;-71
2022/12/30 03:31:25;;;;;;;;;;;;;;;27.48;32.25;95874.31;4990530;28;1500;-71
2022/12/30 03:33:50;;;;;;;;;;;;;;;27.50;32.32;95881.13;5005592;28;1910;-71
2022/12/30 03:36:16;;;;;;;;;;;;;;;27.50;32.02;95881.13;5007421;28;1611;-72
2022/12/30 03:38:45;;;;;;;;;;;;;;;27.49;32.31;95875.97;5011741;28;1557;-71
2022/12/30 03:41:11;;;;;;;;;;;;;;;27.51;32.31;95880.06;4974423;28;1327;-71
2022/12/30 03:43:36;;;;;;;;;;;;;;;27.52;32.17;95883.59;5002818;28;1480;-71
2022/12/30 03:46:02;;;;;;;;;;;;;;;27.52;32.31;95889.81;5001827;28;1706;-71
2022/12/30 03:48:27;;;;;;;;;;;;;;;27.51;32.12;95893.56;5004374;28;1563;-71
2022/12/30 03:50:53;;;;;;;;;;;;;;;27.51;32.16;95898.94;4997599;28;1728;-69
2022/12/30 03:53:18;;;;;;;;;;;;;;;27.51;32.11;95890.84;4982823;28;1576;-69
2022/12/30 03:55:43;;;;;;;;;;;;;;;27.51;32.13;95898.13;5006747;28;1978;-70
2022/12/30 03:58:08;;;;;;;;;;;;;;;27.50;32.11;95897.31;4992025;28;1714;-70
2022/12/30 04:00:34;;;;;;;;;;;;;;;27.49;32.27;95890.28;4996307;28;1598;-70
2022/12/30 04:02:59;;;;;;;;;;;;;;;27.46;32.44;95897.97;4981599;28;1685;-70
2022/12/30 04:05:24;;;;;;;;;;;;;;;27.44;32.57;95903.63;4988511;28;1593;-71
2022/12/30 04:07:49;;;;;;;;;;;;;;;27.45;31.99;95905.25;5007259;28;1679;-69
2022/12/30 04:10:15;;;;;;;;;;;;;;;27.41;32.12;95906.78;5022989;28;1692;-72
2022/12/30 04:12:40;;;;;;;;;;;;;;;27.28;32.71;95910.44;5006459;28;1701;-70
2022/12/30 04:15:05;;;;;;;;;;;;;;;27.38;32.29;95920.69;5013343;28;1910;-72
2022/12/30 04:17:31;;;;;;;;;;;;;;;27.41;32.28;95920.25;5005251;28;1574;-73
2022/12/30 04:19:56;;;;;;;;;;;;;;;26.89;28.07;95917.06;5011021;28;1729;-69
2022/12/30 04:22:21;;;;;;;;;;;;;;;25.20;26.46;95924.84;4995444;28;1460;-69
2022/12/30 04:24:47;;;;;;;;;;;;;;;24.22;26.54;95922.09;5022307;28;1654;-69
2022/12/30 04:27:12;;;;;;;;;;;;;;;23.42;26.42;95921.09;4990067;28;1698;-69
2022/12/30 04:29:37;;;;;;;;;;;;;;;22.87;26.68;95926.38;4991267;28;1719;-69
2022/12/30 04:32:02;;;;;;;;;;;;;;;22.41;26.57;95926.91;4997297;28;1807;-69
2022/12/30 04:34:28;;;;;;;;;;;;;;;22.16;26.77;95932.63;5010473;28;1910;-69
2022/12/30 04:36:53;;;;;;;;;;;;;;;21.78;26.71;95922.25;5004046;28;1663;-69
2022/12/30 04:39:18;;;;;;;;;;;;;;;21.37;26.75;95931.84;5029472;28;1740;-70
2022/12/30 04:41:43;;;;;;;;;;;;;;;21.31;26.86;95928.06;4996991;28;1535;-69
2022/12/30 04:44:09;;;;;;;;;;;;;;;21.11;26.87;95928.63;5032410;28;1789;-69
2022/12/30 04:46:34;;;;;;;;;;;;;;;20.94;27.01;95931.72;5001794;28;1663;-70
2022/12/30 04:48:59;;;;;;;;;;;;;;;20.76;26.83;95930.25;5005341;28;1690;-70
2022/12/30 04:51:25;;;;;;;;;;;;;;;20.69;26.90;95929.34;4988580;28;1926;-69
2022/12/30 04:53:50;;;;;;;;;;;;;;;20.70;26.92;95933.66;5017105;28;1968;-68
2022/12/30 04:56:16;;;;;;;;;;;;;;;20.52;26.79;95930.47;4996033;28;1881;-68
2022/12/30 04:58:41;;;;;;;;;;;;;;;20.53;26.87;95925.00;4988168;28;1498;-68
2022/12/30 05:01:06;;;;;;;;;;;;;;;19.12;29.19;95935.16;4982053;28;1406;-72
2022/12/30 05:03:31;;;;;;;;;;;;;;;18.27;29.55;95941.03;5007758;28;1707;-77
2022/12/30 05:05:57;;;;;;;;;;;;;;;18.03;29.89;95939.22;4992242;28;1663;-73
2022/12/30 05:08:22;;;;;;;;;;;;;;;19.25;30.86;95930.94;5005611;28;1598;-72
2022/12/30 05:10:48;;;;;;;;;;;;;;;20.30;29.80;95937.53;5003700;28;1667;-71
2022/12/30 05:13:13;;;;;;;;;;;;;;;21.05;29.20;95948.06;4985133;28;1595;-72
2022/12/30 05:15:39;;;;;;;;;;;;;;;21.59;29.23;95944.22;4993343;28;1914;-71
2022/12/30 05:18:04;;;;;;;;;;;;;;;21.88;27.58;95945.13;4994889;28;800;-72
2022/12/30 05:20:29;;;;;;;;;;;;;;;21.98;28.73;95945.66;4994298;28;1347;-72
2022/12/30 05:22:55;;;;;;;;;;;;;;;22.28;28.84;95946.34;4993192;28;1683;-74
2022/12/30 05:28:04;;;;;;;;;;;;;;;22.85;29.15;95957.84;4992464;28;1359;-72
2022/12/30 05:30:29;;;;;;;;;;;;;;;22.98;29.09;95949.94;4992674;28;1519;-72
2022/12/30 05:32:54;;;;;;;;;;;;;;;23.11;29.31;95950.03;5002643;28;1649;-72
2022/12/30 05:35:20;;;;;;;;;;;;;;;23.22;29.35;95953.97;4985637;28;1969;-72
2022/12/30 05:37:45;;;;;;;;;;;;;;;23.33;29.25;95965.94;4995049;28;1687;-72
2022/12/30 05:40:10;;;;;;;;;;;;;;;23.42;29.31;95959.38;5024949;28;1755;-71
2022/12/30 05:42:36;;;;;;;;;;;;;;;23.52;29.07;95959.84;5007875;28;1463;-71
2022/12/30 05:45:01;;;;;;;;;;;;;;;23.57;29.15;95957.41;5029968;28;1602;-71
2022/12/30 05:47:26;;;;;;;;;;;;;;;23.62;29.12;95964.81;4984401;28;1107;-71
2022/12/30 05:49:52;;;;;;;;;;;;;;;23.68;29.25;95963.19;4994298;28;1111;-72
2022/12/30 05:52:17;;;;;;;;;;;;;;;23.73;29.26;95960.75;4993977;28;806;-71
2022/12/30 05:54:42;;;;;;;;;;;;;;;23.78;29.17;95963.66;4992330;28;1914;-71
2022/12/30 05:57:08;;;;;;;;;;;;;;;23.83;29.10;95963.91;4990302;28;1029;-72
2022/12/30 05:59:33;;;;;;;;;;;;;;;23.86;29.21;95962.66;4988785;28;1041;-71
2022/12/30 06:01:59;;;;;;;;;;;;;;;23.89;29.30;95968.44;5024079;28;1228;-71
2022/12/30 06:04:24;;;;;;;;;;;;;;;23.92;29.45;95970.72;4992764;28;851;-71
2022/12/30 06:06:49;;;;;;;;;;;;;;;23.96;29.47;95968.44;5024164;28;1199;-71
2022/12/30 06:09:15;;;;;;;;;;;;;;;23.98;29.30;95963.72;4984069;28;1119;-71
2022/12/30 06:11:40;;;;;;;;;;;;;;;24.00;29.46;95973.19;4993081;28;1005;-71
2022/12/30 06:14:05;;;;;;;;;;;;;;;24.02;29.35;95973.84;4993874;28;1906;-71
2022/12/30 06:16:31;;;;;;;;;;;;;;;24.06;29.58;95976.09;4993363;28;1309;-70
2022/12/30 06:18:56;;;;;;;;;;;;;;;24.05;29.34;95969.06;4994201;28;775;-71
2022/12/30 06:21:21;;;;;;;;;;;;;;;24.08;29.45;95976.69;4984451;28;1047;-71
2022/12/30 06:23:46;;;;;;;;;;;;;;;24.11;29.60;95984.38;4993264;28;792;-71
2022/12/30 06:26:12;;;;;;;;;;;;;;;24.13;29.38;95972.38;4993570;28;838;-71
2022/12/30 06:28:37;;;;;;;;;;;;;;;24.15;29.41;95985.59;4993452;28;863;-71
2022/12/30 06:31:02;;;;;;;;;;;;;;;24.15;29.69;95981.06;4990037;28;909;-71
2022/12/30 06:33:27;;;;;;;;;;;;;;;24.20;29.52;95983.97;4987031;28;1046;-71
2022/12/30 06:35:53;;;;;;;;;;;;;;;24.23;29.37;95988.09;5024842;28;1932;-71
2022/12/30 06:38:18;;;;;;;;;;;;;;;24.24;29.42;95985.19;4991631;28;1188;-70
2022/12/30 06:40:44;;;;;;;;;;;;;;;24.27;29.40;95989.31;4993468;28;925;-70
2022/12/30 06:43:09;;;;;;;;;;;;;;;24.30;29.40;95988.91;4984924;28;1074;-71
2022/12/30 06:45:35;;;;;;;;;;;;;;;24.33;29.46;95988.50;5024097;28;1503;-71
2022/12/30 06:48:00;;;;;;;;;;;;;;;24.35;29.51;95991.81;4993389;28;799;-71
2022/12/30 06:50:25;;;;;;;;;;;;;;;24.38;29.58;95994.06;4993159;28;1079;-71
2022/12/30 06:52:50;;;;;;;;;;;;;;;24.40;29.38;95999.25;4992780;28;871;-71
2022/12/30 06:55:16;;;;;;;;;;;;;;;24.44;29.58;96003.19;4985005;28;1902;-71
2022/12/30 06:57:41;;;;;;;;;;;;;;;24.46;29.34;96003.81;5024743;28;1431;-71
2022/12/30 07:00:08;;;;;;;;;;;;;;;24.47;29.41;96000.09;4992885;28;878;-71
2022/12/30 07:02:33;;;;;;;;;;;;;;;24.51;29.34;96000.53;4991785;28;1399;-71
2022/12/30 07:04:59;;;;;;;;;;;;;;;24.51;29.32;96011.25;4993053;28;954;-71
2022/12/30 07:07:24;;;;;;;;;;;;;;;24.51;29.54;96006.72;4981377;28;1195;-71
2022/12/30 07:09:49;;;;;;;;;;;;;;;24.54;29.34;96010.84;4993041;28;871;-71
2022/12/30 07:12:15;;;;;;;;;;;;;;;24.55;29.26;96017.84;4992978;28;910;-72
2022/12/30 07:14:40;;;;;;;;;;;;;;;24.55;29.38;96015.16;4992423;28;1894;-69
2022/12/30 07:17:05;;;;;;;;;;;;;;;24.55;29.54;96017.84;4984993;28;1319;-71
2022/12/30 07:19:31;;;;;;;;;;;;;;;24.58;29.57;96020.09;5021391;28;1198;-71
2022/12/30 07:21:56;;;;;;;;;;;;;;;24.59;29.41;96013.69;4992209;28;854;-71
2022/12/30 07:24:21;;;;;;;;;;;;;;;24.61;29.43;96011.66;5024150;28;1192;-72
2022/12/30 07:26:47;;;;;;;;;;;;;;;24.66;29.51;96014.53;5023872;28;1174;-71
2022/12/30 07:29:12;;;;;;;;;;;;;;;24.68;29.42;96018.69;4983503;28;1197;-71
2022/12/30 07:31:38;;;;;;;;;;;;;;;24.75;29.26;96012.47;4992387;28;815;-71
2022/12/30 07:34:03;;;;;;;;;;;;;;;24.77;29.45;96016.59;5023443;28;1906;-72
2022/12/30 07:36:29;;;;;;;;;;;;;;;24.80;29.31;96018.06;4992434;28;896;-71
2022/12/30 07:38:55;;;;;;;;;;;;;;;24.82;29.20;96019.50;4990711;28;1297;-71
2022/12/30 07:41:21;;;;;;;;;;;;;;;24.86;29.43;96022.59;4983218;28;1087;-71
2022/12/30 07:43:46;;;;;;;;;;;;;;;24.86;29.43;96025.28;4992465;28;803;-71
2022/12/30 07:46:11;;;;;;;;;;;;;;;24.88;29.34;96020.53;4992277;28;846;-71
2022/12/30 07:48:37;;;;;;;;;;;;;;;24.91;29.26;96022.78;4992364;28;834;-70
2022/12/30 07:51:09;;;;;;;;;;;;;;;24.93;29.18;96026.06;4987218;28;1129;-71
2022/12/30 07:53:36;;;;;;;;;;;;;;;24.96;29.14;96022.16;4988399;28;1075;-72
2022/12/30 07:56:03;;;;;;;;;;;;;;;25.00;29.38;96020.72;4992151;28;1918;-73
2022/12/30 07:58:28;;;;;;;;;;;;;;;25.03;29.40;96021.13;4990713;28;1425;-72
2022/12/30 08:00:53;;;;;;;;;;;;;;;25.07;29.21;96010.78;4991904;28;879;-72
2022/12/30 08:03:19;;;;;;;;;;;;;;;25.10;29.15;96010.34;4982576;28;1150;-69
2022/12/30 08:05:44;;;;;;;;;;;;;;;25.13;29.17;96015.28;5022994;28;1267;-70
2022/12/30 08:08:11;;;;;;;;;;;;;;;25.16;29.33;96009.56;5022666;28;1608;-71
2022/12/30 08:10:36;;;;;;;;;;;;;;;25.18;29.26;96012.84;4991929;28;859;-71
2022/12/30 08:13:03;;;;;;;;;;;;;;;25.22;29.04;96014.09;4992135;28;820;-71
2022/12/30 08:15:28;;;;;;;;;;;;;;;25.23;29.23;96013.03;4982354;28;1902;-71
2022/12/30 08:17:54;;;;;;;;;;;;;;;25.24;29.22;96017.38;4991507;28;811;-71
2022/12/30 08:20:19;;;;;;;;;;;;;;;25.26;29.14;96015.31;4990269;28;1302;-72
2022/12/30 08:22:44;;;;;;;;;;;;;;;25.30;29.08;96015.69;4989864;28;1381;-71
2022/12/30 08:25:09;;;;;;;;;;;;;;;25.31;29.17;96023.56;4987053;28;1227;-71
2022/12/30 08:27:35;;;;;;;;;;;;;;;25.34;29.07;96015.09;4986782;28;1036;-71
2022/12/30 08:30:00;;;;;;;;;;;;;;;25.34;28.96;96016.94;4991176;28;855;-71
2022/12/30 08:32:25;;;;;;;;;;;;;;;25.37;28.95;96021.91;5023089;28;1275;-72
2022/12/30 08:34:51;;;;;;;;;;;;;;;25.35;29.14;96024.78;5022887;28;1914;-71
2022/12/30 08:37:16;;;;;;;;;;;;;;;25.38;28.95;96017.34;4981563;28;980;-72
2022/12/30 08:39:41;;;;;;;;;;;;;;;25.38;29.05;96022.72;4991631;28;824;-71
2022/12/30 08:42:07;;;;;;;;;;;;;;;25.38;28.84;96028.09;4991472;28;823;-71
2022/12/30 08:44:32;;;;;;;;;;;;;;;25.38;29.28;96028.09;4991480;28;906;-71
2022/12/30 08:46:57;;;;;;;;;;;;;;;25.40;29.05;96026.03;4994574;28;807;-71
2022/12/30 08:49:23;;;;;;;;;;;;;;;25.39;28.90;96024.34;4986068;28;1431;-71
2022/12/30 08:51:48;;;;;;;;;;;;;;;25.41;29.06;96017.75;5026463;28;1162;-71
2022/12/30 08:54:14;;;;;;;;;;;;;;;25.42;29.15;96021.28;4995586;28;1922;-72
2022/12/30 08:56:40;;;;;;;;;;;;;;;25.42;29.13;96022.09;4995465;28;850;-71
2022/12/30 08:59:05;;;;;;;;;;;;;;;25.43;29.11;96022.91;4990167;28;952;-72
2022/12/30 09:01:33;;;;;;;;;;;;;;;25.41;29.00;96022.28;4991081;28;928;-71
2022/12/30 09:03:58;;;;;;;;;;;;;;;25.42;29.30;96021.28;5027154;28;1347;-71
2022/12/30 09:06:24;;;;;;;;;;;;;;;25.42;28.92;96018.59;4993472;28;1300;-71
2022/12/30 09:08:50;;;;;;;;;;;;;;;25.42;29.10;96018.59;4994982;28;783;-71
2022/12/30 09:11:17;;;;;;;;;;;;;;;25.42;28.94;96018.59;4985962;28;1007;-71
2022/12/30 09:13:43;;;;;;;;;;;;;;;25.42;29.12;96015.91;4994754;28;982;-72
2022/12/30 09:16:10;;;;;;;;;;;;;;;25.44;29.03;96011.13;4993607;28;1902;-72
2022/12/30 09:18:36;;;;;;;;;;;;;;;25.43;29.06;96010.31;4994946;28;851;-71
2022/12/30 09:21:01;;;;;;;;;;;;;;;25.43;29.00;96004.09;4993076;28;1479;-71
2022/12/30 09:23:27;;;;;;;;;;;;;;;25.44;29.11;96006.56;4985666;28;1057;-71
2022/12/30 09:25:52;;;;;;;;;;;;;;;25.46;29.01;96009.88;5027429;28;1390;-71
2022/12/30 09:28:18;;;;;;;;;;;;;;;25.46;29.17;96012.56;4994656;28;961;-70
2022/12/30 09:30:43;;;;;;;;;;;;;;;25.47;28.99;96003.47;4995046;28;799;-70
2022/12/30 09:33:08;;;;;;;;;;;;;;;25.47;29.14;96016.06;4990087;28;1047;-70
2022/12/30 09:35:34;;;;;;;;;;;;;;;25.48;28.97;96013.19;4989675;28;1964;-71
2022/12/30 09:37:59;;;;;;;;;;;;;;;25.50;29.02;96003.06;4994485;28;910;-71
2022/12/30 09:40:38;;;;;;;;;;;;;;;25.51;29.17;95995.81;4994723;28;785;-70
2022/12/30 09:43:16;;;;;;;;;;;;;;;25.54;28.98;95990.00;4994351;28;855;-71
2022/12/30 09:45:41;;;;;;;;;;;;;;;25.53;28.92;95989.19;5016674;28;1222;-70
2022/12/30 09:48:10;;;;;;;;;;;;;;;25.55;28.98;95983.59;5026155;28;1390;-71
2022/12/30 09:50:41;;;;;;;;;;;;;;;25.58;28.94;95980.47;4993733;28;1350;-70
2022/12/30 09:53:10;;;;;;;;;;;;;;;25.58;28.97;95975.91;4993194;28;1340;-69
2022/12/30 09:55:58;;;;;;;;;;;;;;;25.57;29.11;95973.47;5021255;28;1902;-70
2022/12/30 09:58:29;;;;;;;;;;;;;;;25.58;28.90;95972.41;4987677;28;1419;-70
2022/12/30 10:00:56;;;;;;;;;;;;;;;25.58;29.13;95964.34;4994364;28;879;-70
2022/12/30 10:03:25;;;;;;;;;;;;;;;25.58;28.98;95969.72;4994165;28;792;-70
2022/12/30 10:05:53;;;;;;;;;;;;;;;25.59;29.00;95971.41;4993755;28;884;-70
2022/12/30 10:08:30;;;;;;;;;;;;;;;25.59;29.00;95968.72;4984753;28;954;-70
2022/12/30 10:10:58;;;;;;;;;;;;;;;25.59;29.33;95968.72;4994222;28;938;-70
2022/12/30 10:13:32;;;;;;;;;;;;;;;25.59;28.96;95955.28;4993752;28;784;-70
2022/12/30 10:16:02;;;;;;;;;;;;;;;25.60;29.20;95956.09;4992814;28;1895;-70
2022/12/30 10:18:40;;;;;;;;;;;;;;;25.61;29.08;95946.97;4989611;28;1069;-69
2022/12/30 10:21:08;;;;;;;;;;;;;;;25.59;29.14;95949.91;4991203;28;969;-71
2022/12/30 10:23:36;;;;;;;;;;;;;;;25.58;29.04;95949.06;4994073;28;824;-70
2022/12/30 10:26:20;;;;;;;;;;;;;;;25.56;29.05;95945.78;5025801;28;1196;-72
2022/12/30 10:28:50;;;;;;;;;;;;;;;25.49;29.23;95931.53;4993545;28;799;-71
2022/12/30 10:31:20;;;;;;;;;;;;;;;25.57;29.07;95939.34;4984264;28;1007;-70
2022/12/30 10:33:51;;;;;;;;;;;;;;;25.57;28.94;95936.66;4993725;28;842;-69
2022/12/30 10:36:29;;;;;;;;;;;;;;;25.58;29.26;95932.94;4992698;28;1959;-70
2022/12/30 10:38:58;;;;;;;;;;;;;;;25.56;29.22;95931.53;4993440;28;883;-71
2022/12/30 10:41:27;;;;;;;;;;;;;;;25.58;29.08;95926.72;5001515;28;1293;-71
2022/12/30 10:44:01;;;;;;;;;;;;;;;25.57;29.03;95912.47;5023743;28;1363;-70
2022/12/30 10:46:45;;;;;;;;;;;;;;;25.55;29.09;95911.88;4993468;28;1029;-70
2022/12/30 10:49:16;;;;;;;;;;;;;;;25.55;29.04;95911.03;4992896;28;851;-71
2022/12/30 10:51:42;;;;;;;;;;;;;;;25.55;29.26;95908.34;4991770;28;1208;-71
2022/12/30 10:54:08;;;;;;;;;;;;;;;25.54;29.27;95904.84;4982987;28;1972;-71
2022/12/30 10:56:34;;;;;;;;;;;;;;;25.54;29.07;95893.28;4993047;28;978;-71
2022/12/30 10:59:04;;;;;;;;;;;;;;;25.52;29.15;95901.53;4993365;28;1093;-70
2022/12/30 11:01:40;;;;;;;;;;;;;;;25.52;29.07;95893.50;5024467;28;1430;-70
2022/12/30 11:04:05;;;;;;;;;;;;;;;25.51;29.33;95888.34;4986165;28;977;-71
2022/12/30 11:06:35;;;;;;;;;;;;;;;25.54;29.12;95885.22;4990694;28;1066;-70
2022/12/30 11:09:12;;;;;;;;;;;;;;;25.53;29.14;95891.66;4992463;28;788;-70
2022/12/30 11:14:45;;;;;;;;;;;;;;;25.49;29.20;95871.59;4991438;28;1951;-71
2022/12/30 11:17:13;;;;;;;;;;;;;;;25.49;29.22;95876.97;4985505;28;1319;-70
2022/12/30 11:19:39;;;;;;;;;;;;;;;25.48;29.40;95878.03;4991987;28;871;-70
2022/12/30 11:22:04;;;;;;;;;;;;;;;25.48;29.15;95872.66;4992721;28;791;-70
2022/12/30 11:24:29;;;;;;;;;;;;;;;25.48;29.20;95878.03;4992662;28;902;-70
2022/12/30 11:26:55;;;;;;;;;;;;;;;25.48;29.24;95872.66;4983390;28;1043;-70
2022/12/30 11:29:21;;;;;;;;;;;;;;;25.48;29.24;95869.97;4991060;28;1284;-70
2022/12/30 11:31:48;;;;;;;;;;;;;;;25.47;29.22;95871.00;4992395;28;855;-71
2022/12/30 11:34:34;;;;;;;;;;;;;;;25.46;29.31;95869.34;4992139;28;1898;-70
2022/12/30 11:37:00;;;;;;;;;;;;;;;25.47;29.12;95877.22;4992291;28;1227;-70
2022/12/30 11:39:26;;;;;;;;;;;;;;;25.45;29.30;95868.53;4981969;28;1157;-70
2022/12/30 11:41:53;;;;;;;;;;;;;;;25.44;29.28;95858.81;4990704;28;1347;-70
2022/12/30 11:44:19;;;;;;;;;;;;;;;25.44;29.29;95864.19;4991028;28;1482;-70
2022/12/30 11:46:46;;;;;;;;;;;;;;;25.43;29.37;95870.59;4992377;28;931;-70
2022/12/30 11:49:21;;;;;;;;;;;;;;;25.42;29.28;95863.59;4987093;28;1009;-70
2022/12/30 11:51:48;;;;;;;;;;;;;;;25.43;29.28;95865.22;5020739;28;1212;-70
2022/12/30 11:54:18;;;;;;;;;;;;;;;25.44;29.31;95855.31;4992124;28;1952;-70
2022/12/30 11:56:51;;;;;;;;;;;;;;;25.42;29.30;95852.84;4991837;28;831;-70
2022/12/30 11:59:19;;;;;;;;;;;;;;;25.42;29.70;95858.22;4982323;28;1749;-69
2022/12/30 12:01:46;;;;;;;;;;;;;;;25.39;29.43;95858.66;4971292;28;1003;-69
2022/12/30 12:04:29;;;;;;;;;;;;;;;25.27;28.30;95860.34;4992103;28;867;-69
2022/12/30 12:06:56;;;;;;;;;;;;;;;25.15;29.18;95859.38;4991938;28;870;-70
2022/12/30 12:09:26;;;;;;;;;;;;;;;25.20;29.36;95862.25;4992024;28;823;-70
2022/12/30 12:11:51;;;;;;;;;;;;;;;25.24;29.27;95850.03;4986796;28;1063;-70
2022/12/30 12:14:20;;;;;;;;;;;;;;;25.27;29.38;95850.47;5001253;28;1910;-70
2022/12/30 12:16:45;;;;;;;;;;;;;;;25.31;29.38;95858.91;4986924;28;1407;-70
2022/12/30 12:19:15;;;;;;;;;;;;;;;25.32;29.35;95853.31;5022624;28;1215;-71
2022/12/30 12:21:40;;;;;;;;;;;;;;;25.35;29.36;95852.88;5023048;28;1409;-71
2022/12/30 12:24:16;;;;;;;;;;;;;;;25.34;29.50;95858.47;4980982;28;1282;-71
2022/12/30 12:26:58;;;;;;;;;;;;;;;25.18;28.56;95857.09;4991503;28;886;-72
2022/12/30 12:29:24;;;;;;;;;;;;;;;24.85;29.02;95854.53;4991961;28;851;-71
2022/12/30 12:32:01;;;;;;;;;;;;;;;24.66;29.26;95853.56;5023448;28;1181;-72
2022/12/30 12:34:27;;;;;;;;;;;;;;;24.43;29.29;95854.84;4987012;28;1966;-72
2022/12/30 12:37:10;;;;;;;;;;;;;;;24.35;29.77;95855.03;5018440;28;1208;-71
2022/12/30 12:39:59;;;;;;;;;;;;;;;24.25;29.71;95846.59;4991527;28;878;-70
2022/12/30 12:42:42;;;;;;;;;;;;;;;24.16;29.54;95854.03;4991007;28;895;-71
2022/12/30 12:45:11;;;;;;;;;;;;;;;24.09;29.76;95853.19;4991497;28;883;-71
2022/12/30 12:47:54;;;;;;;;;;;;;;;24.04;29.82;95852.16;4981740;28;1074;-71
2022/12/30 12:50:26;;;;;;;;;;;;;;;24.00;29.89;95849.91;4991740;28;1197;-70
2022/12/30 12:52:51;;;;;;;;;;;;;;;23.95;29.87;95857.72;4991200;28;891;-70
2022/12/30 12:55:31;;;;;;;;;;;;;;;23.91;29.74;95859.19;4990935;28;1914;-70
2022/12/30 12:58:14;;;;;;;;;;;;;;;23.85;29.69;95857.34;4982297;28;1084;-71
2022/12/30 13:00:49;;;;;;;;;;;;;;;23.82;29.87;95860.41;4991444;28;878;-70
2022/12/30 13:03:22;;;;;;;;;;;;;;;23.77;29.93;95860.22;4990436;28;880;-71
2022/12/30 13:05:54;;;;;;;;;;;;;;;23.76;29.69;95855.88;4991524;28;811;-71
2022/12/30 13:08:38;;;;;;;;;;;;;;;23.74;29.80;95858.75;4987124;28;1070;-71
2022/12/30 13:11:07;;;;;;;;;;;;;;;23.71;29.82;95872.56;5001436;28;1501;-71
2022/12/30 13:13:42;;;;;;;;;;;;;;;23.68;30.06;95872.94;4991030;28;879;-71
2022/12/30 13:16:11;;;;;;;;;;;;;;;23.66;29.93;95874.19;4991065;28;1906;-70
2022/12/30 13:18:39;;;;;;;;;;;;;;;23.83;30.06;95870.09;4990937;28;829;-70
2022/12/30 13:21:05;;;;;;;;;;;;;;;24.02;30.02;95866.63;4982450;28;1017;-70
2022/12/30 13:23:40;;;;;;;;;;;;;;;24.11;29.66;95864.53;4991206;28;822;-70
2022/12/30 13:26:05;;;;;;;;;;;;;;;24.22;29.73;95869.28;4991089;28;839;-70
2022/12/30 13:28:32;;;;;;;;;;;;;;;24.32;29.76;95874.22;4991259;28;867;-70
2022/12/30 13:31:29;;;;;;;;;;;;;;;24.35;29.67;95873.78;4988121;28;1103;-70
2022/12/30 13:33:55;;;;;;;;;;;;;;;24.42;29.55;95880.00;4988824;28;1190;-70
2022/12/30 13:36:49;;;;;;;;;;;;;;;24.45;29.62;95884.97;4994783;28;1973;-71
2022/12/30 13:39:24;;;;;;;;;;;;;;;24.50;29.67;95875.47;4994159;28;1245;-71
2022/12/30 13:42:07;;;;;;;;;;;;;;;24.52;29.58;95868.84;4994928;28;886;-70
2022/12/30 13:44:34;;;;;;;;;;;;;;;24.53;29.50;95875.84;4985898;28;1097;-70
2022/12/30 13:47:00;;;;;;;;;;;;;;;24.57;29.59;95884.34;4994552;28;888;-70
2022/12/30 13:49:26;;;;;;;;;;;;;;;24.60;29.76;95881.22;4994334;28;1317;-70
2022/12/30 13:52:02;;;;;;;;;;;;;;;24.61;29.72;95877.50;5009550;28;1203;-70
2022/12/30 13:54:28;;;;;;;;;;;;;;;24.62;29.50;95879.16;4983811;28;1934;-70
2022/12/30 13:56:54;;;;;;;;;;;;;;;24.65;29.71;95892.16;4991366;28;1148;-70
2022/12/30 13:59:19;;;;;;;;;;;;;;;24.64;29.86;95891.31;5026047;28;1365;-70